Newport News, VA

9:57 AM EDT on October 30, 2014 (GMT -0400)
Norfolk Naval Station / Chambers Field | Change Station
CLOSE
Current Station
Airport
Location: Norfolk NAS,
Elevation: 16 ft
Nearby Weather Stations

Elev 16 ft 36.94 °N, 76.29 °W | Updated 58 minutes ago

Clear
Clear
58 °F
Feels Like 58 °F
N
9
Wind Variable Wind from NW

Today
High -- | Low -- °F
--% Chance of Precip.
Yesterday
High -- | Low -- °F
Precip. -- in
7:27 AM 6:10 PM
Waxing Crescent, 44% visible
Pressure 30.05 in
Visibility 9.0 miles
Clouds Few 1000 ft
Few 8000 ft
Scattered Clouds 20000 ft
Dew Point 52 °F
Humidity 81%
Rainfall 0.16 in
Snow Depth Not available.
UV 1 out of 12
Pollen .30 out of 12
Air Quality Not available.
Flu Activity Not available.
METAR KNGU 301259Z 32008KT 9SM FEW010 FEW080 SCT200 14/11 A3005 RMK AO2 SLP175 T01440111 $

More Conditions Fewer Conditions

Pressure 30.05 in
Visibility 9.0 miles
Clouds Few 1000 ft
Few 8000 ft
Scattered Clouds 20000 ft
Dew Point 52 °F
Humidity 81%
Rainfall 0.16 in
Snow Depth Not available.
UV 1 out of 12
Pollen .30 out of 12
Air Quality Not available.
Flu Activity Not available.
METAR KNGU 301259Z 32008KT 9SM FEW010 FEW080 SCT200 14/11 A3005 RMK AO2 SLP175 T01440111 $

More Conditions Fewer Conditions

10-Day Weather Forecast

Almanac

Astronomy

Oct. 30, 2014 Rise Set
Actual Time
Civil Twilight
Nautical Twilight
Astronomical Twilight
Moon
Length of Visible Light
Length of Day
Tomorrow will be .
, % of the Moon is Illuminated

Today's Extremes

State Highs State Lows

Community

WunderPhotos

Upload Photos

1,766,358 photos uploaded!

WunderBlogs® & News

Nearby

Air Quality

  Air Quality AQ Index Pollutant
Not available.

Snow Depth

Station Depth Elevation

Earthquake Activity

City Distance Mag. Time & Date
Minimum magnitude displayed is 2.5.

Coastal Water Temperatures

Place Temperature

Nearby Weather Stations